Time;durP1;ratioP1;P1;durP2;ratioP2;P2;SDS_P1;SDS_P2;PMS_P1;PMS_P2;Temp;Humidity;BMP_temperature;BMP_pressure;BME280_temperature;BME280_humidity;BME280_pressure;Samples;Min_cycle;Max_cycle;Signal;HPM_P1;HPM_P2
2022/06/15 00:02:15;;;;;;;0.40;0.40;;;23.20;60.30;;;;;;5013516;28;20092;-21
2022/06/15 00:04:41;;;;;;;0.38;0.30;;;23.20;60.30;;;;;;4996421;28;20046;-21
2022/06/15 00:07:07;;;;;;;0.40;0.40;;;23.20;60.40;;;;;;4980674;28;20406;-21
2022/06/15 00:09:32;;;;;;;0.40;0.40;;;23.20;60.00;;;;;;4995320;28;20041;-21
2022/06/15 00:11:58;;;;;;;0.30;0.30;;;23.20;60.00;;;;;;4997678;28;20046;-21
2022/06/15 00:14:26;;;;;;;0.20;0.20;;;23.20;60.30;;;;;;4996573;28;20502;-21
2022/06/15 00:16:52;;;;;;;0.28;0.28;;;23.20;60.20;;;;;;5012274;28;20076;-21
2022/06/15 00:19:18;;;;;;;0.40;0.40;;;23.20;60.00;;;;;;5013036;28;20034;-22
2022/06/15 00:21:43;;;;;;;0.40;0.40;;;23.20;60.00;;;;;;5015258;28;20042;-22
2022/06/15 00:24:09;;;;;;;0.20;0.20;;;23.20;60.20;;;;;;4994460;28;20074;-22
2022/06/15 00:26:35;;;;;;;0.30;0.30;;;23.20;60.10;;;;;;5016384;28;20402;-22
2022/06/15 00:29:00;;;;;;;0.40;0.40;;;23.20;60.10;;;;;;4998799;28;20038;-22
2022/06/15 00:31:26;;;;;;;0.40;0.40;;;23.20;60.20;;;;;;5013891;28;20598;-22
2022/06/15 00:33:52;;;;;;;0.40;0.30;;;23.20;60.20;;;;;;4979262;28;20050;-22
2022/06/15 00:36:18;;;;;;;0.30;0.30;;;23.20;60.10;;;;;;4982755;28;20514;-22
2022/06/15 00:38:47;;;;;;;0.40;0.40;;;23.20;60.10;;;;;;5014285;28;20506;-22
2022/06/15 00:41:15;;;;;;;0.50;0.50;;;23.20;60.30;;;;;;5012798;28;20111;-22
2022/06/15 00:43:53;;;;;;;0.40;0.40;;;23.20;60.10;;;;;;5006244;28;20046;-22
2022/06/15 00:46:40;;;;;;;0.30;0.30;;;23.20;60.20;;;;;;5016013;28;20048;-22
2022/06/15 00:49:09;;;;;;;0.68;0.38;;;23.20;60.10;;;;;;5020737;28;20045;-22
2022/06/15 00:51:34;;;;;;;0.32;0.32;;;23.20;60.20;;;;;;5022502;28;20050;-22
2022/06/15 00:54:00;;;;;;;0.40;0.40;;;23.20;60.20;;;;;;5034406;28;20056;-22
2022/06/15 00:56:27;;;;;;;0.32;0.32;;;23.20;60.10;;;;;;5020699;28;20081;-22
2022/06/15 00:58:55;;;;;;;0.30;0.30;;;23.20;60.20;;;;;;5027862;28;20136;-23
2022/06/15 01:01:21;;;;;;;0.30;0.30;;;23.20;60.20;;;;;;5017833;28;20117;-22
2022/06/15 01:03:47;;;;;;;0.30;0.30;;;23.10;60.10;;;;;;5028673;28;20056;-21
2022/06/15 01:06:14;;;;;;;0.30;0.30;;;23.10;60.10;;;;;;5028907;28;20045;-22
2022/06/15 01:08:48;;;;;;;0.30;0.30;;;23.10;60.10;;;;;;5029078;28;20045;-21
2022/06/15 01:11:18;;;;;;;0.52;0.43;;;23.10;60.20;;;;;;5026462;28;20041;-21
2022/06/15 01:14:08;;;;;;;0.30;0.30;;;23.10;60.30;;;;;;5028721;28;20042;-22
2022/06/15 01:17:02;;;;;;;0.30;0.30;;;23.10;60.10;;;;;;5027023;28;20131;-22
2022/06/15 01:19:37;;;;;;;0.30;0.30;;;23.20;60.20;;;;;;5034350;28;20597;-22
2022/06/15 01:22:27;;;;;;;0.30;0.30;;;23.10;60.10;;;;;;5027984;28;20041;-21
2022/06/15 01:25:05;;;;;;;0.40;0.40;;;23.10;60.10;;;;;;5020550;28;20065;-22
2022/06/15 01:27:37;;;;;;;0.30;0.30;;;23.20;60.10;;;;;;5029603;28;20106;-22
2022/06/15 01:30:24;;;;;;;0.22;0.22;;;23.20;60.00;;;;;;5033666;28;20102;-21
2022/06/15 01:33:03;;;;;;;0.30;0.30;;;23.20;60.10;;;;;;5025785;28;20061;-22
2022/06/15 01:35:47;;;;;;;0.35;0.20;;;23.10;59.90;;;;;;5027532;28;20056;-22
2022/06/15 01:38:36;;;;;;;0.30;0.30;;;23.10;60.00;;;;;;5023840;28;20103;-22
2022/06/15 01:41:31;;;;;;;0.30;0.30;;;23.20;60.10;;;;;;5026112;28;20041;-21
2022/06/15 01:44:08;;;;;;;0.47;0.47;;;23.10;60.10;;;;;;5017839;28;20050;-22
2022/06/15 01:46:35;;;;;;;0.40;0.40;;;23.10;60.20;;;;;;5023822;28;20072;-23
2022/06/15 01:49:01;;;;;;;0.22;0.20;;;23.10;60.00;;;;;;5032003;28;20073;-22
2022/06/15 01:51:31;;;;;;;0.40;0.40;;;23.20;60.10;;;;;;5025782;28;20073;-21
2022/06/15 01:54:01;;;;;;;0.43;0.43;;;23.10;60.00;;;;;;5004672;28;20506;-22
2022/06/15 01:56:38;;;;;;;0.50;0.50;;;23.10;59.90;;;;;;5031717;28;20128;-21
2022/06/15 01:59:28;;;;;;;0.30;0.22;;;23.20;60.00;;;;;;5030082;28;21542;-21
2022/06/15 02:02:25;;;;;;;0.47;0.47;;;23.10;59.90;;;;;;5026610;28;20270;-21
2022/06/15 02:05:08;;;;;;;0.45;0.45;;;23.20;60.00;;;;;;5015779;28;20061;-22
2022/06/15 02:07:36;;;;;;;0.40;0.40;;;23.20;59.90;;;;;;5032711;28;20052;-23
2022/06/15 02:10:11;;;;;;;0.30;0.30;;;23.10;60.10;;;;;;5029386;28;20053;-22
2022/06/15 02:12:41;;;;;;;0.30;0.30;;;23.10;59.90;;;;;;5031178;28;20406;-23
2022/06/15 02:15:07;;;;;;;0.20;0.20;;;23.10;59.80;;;;;;5027156;28;20104;-22
2022/06/15 02:17:36;;;;;;;0.40;0.40;;;23.10;59.90;;;;;;5008297;28;20049;-22
2022/06/15 02:20:29;;;;;;;0.25;0.25;;;23.20;59.80;;;;;;5023380;28;20053;-22
2022/06/15 02:22:59;;;;;;;0.30;0.30;;;23.20;60.00;;;;;;5024646;28;20413;-21
2022/06/15 02:25:28;;;;;;;0.30;0.30;;;23.20;59.90;;;;;;5021405;28;20055;-22
2022/06/15 02:27:53;;;;;;;0.30;0.30;;;23.10;60.00;;;;;;5005844;28;20092;-22
2022/06/15 02:30:21;;;;;;;0.35;0.35;;;23.10;59.90;;;;;;5021792;28;20049;-21
2022/06/15 02:32:48;;;;;;;0.20;0.20;;;23.20;60.00;;;;;;5003214;28;20481;-21
2022/06/15 02:35:15;;;;;;;0.28;0.28;;;23.20;60.00;;;;;;5008018;28;20133;-22
2022/06/15 02:37:40;;;;;;;0.57;0.47;;;23.10;59.90;;;;;;5026272;28;20066;-21
2022/06/15 02:40:07;;;;;;;0.38;0.38;;;23.10;59.90;;;;;;5011478;28;20070;-22
2022/06/15 02:42:36;;;;;;;0.22;0.22;;;23.10;60.00;;;;;;5021864;28;20088;-22
2022/06/15 02:45:11;;;;;;;0.50;0.50;;;23.10;60.10;;;;;;4998452;28;20056;-21
2022/06/15 02:47:40;;;;;;;0.43;0.43;;;23.10;60.10;;;;;;5027494;28;20426;-24
2022/06/15 02:50:06;;;;;;;0.30;0.30;;;23.10;60.10;;;;;;4999458;28;20060;-22
2022/06/15 02:52:35;;;;;;;0.40;0.40;;;23.10;60.10;;;;;;5025476;28;20046;-22
2022/06/15 02:55:00;;;;;;;0.40;0.40;;;23.10;59.90;;;;;;5002771;28;20049;-21
2022/06/15 02:57:26;;;;;;;0.30;0.30;;;23.10;60.00;;;;;;5023780;28;20048;-21
2022/06/15 02:59:52;;;;;;;0.30;0.30;;;23.10;59.90;;;;;;5026451;28;20048;-22
2022/06/15 03:02:19;;;;;;;0.50;0.40;;;23.20;60.00;;;;;;5028105;28;20037;-22
2022/06/15 03:04:45;;;;;;;0.40;0.40;;;23.20;59.90;;;;;;5020218;28;20060;-21
2022/06/15 03:07:11;;;;;;;0.35;0.30;;;23.10;61.00;;;;;;5025339;28;20033;-22
2022/06/15 03:09:38;;;;;;;0.30;0.30;;;23.10;60.10;;;;;;5028111;28;20069;-22
2022/06/15 03:12:04;;;;;;;0.30;0.30;;;23.10;60.00;;;;;;5019767;28;20037;-21
2022/06/15 03:14:30;;;;;;;0.50;0.50;;;23.10;59.90;;;;;;5018945;28;20044;-22
2022/06/15 03:16:57;;;;;;;0.30;0.30;;;23.10;60.00;;;;;;5005358;28;20049;-22
2022/06/15 03:19:23;;;;;;;0.38;0.38;;;23.10;59.90;;;;;;5025669;28;20686;-22
2022/06/15 03:21:48;;;;;;;0.30;0.30;;;23.10;59.90;;;;;;5019758;28;20326;-22
2022/06/15 03:24:14;;;;;;;0.30;0.30;;;23.10;59.90;;;;;;5026056;28;20046;-22
2022/06/15 03:26:40;;;;;;;0.40;0.40;;;23.10;59.90;;;;;;5022985;28;20057;-23
2022/06/15 03:29:06;;;;;;;0.30;0.30;;;23.10;60.00;;;;;;5002832;28;20184;-22
2022/06/15 03:31:31;;;;;;;0.40;0.40;;;23.10;60.10;;;;;;5027743;28;20124;-22
2022/06/15 03:33:57;;;;;;;0.20;0.20;;;23.10;60.10;;;;;;5019369;28;20077;-22
2022/06/15 03:36:23;;;;;;;0.30;0.30;;;23.10;60.00;;;;;;5017780;28;20054;-22
2022/06/15 03:38:48;;;;;;;0.40;0.40;;;23.10;60.00;;;;;;5026032;28;20045;-22
2022/06/15 03:41:14;;;;;;;0.30;0.30;;;23.10;59.90;;;;;;5019666;28;20611;-22
2022/06/15 03:43:40;;;;;;;0.28;0.28;;;23.10;60.00;;;;;;5007932;28;20414;-23
2022/06/15 03:46:05;;;;;;;0.40;0.40;;;23.10;60.00;;;;;;5022955;28;20048;-21
2022/06/15 03:48:31;;;;;;;0.50;0.50;;;23.10;60.00;;;;;;5025842;28;20073;-22
2022/06/15 03:50:57;;;;;;;0.35;0.35;;;23.00;59.90;;;;;;5024804;28;20092;-22
2022/06/15 03:53:22;;;;;;;0.20;0.20;;;23.10;60.00;;;;;;5023399;28;20050;-22
2022/06/15 03:55:48;;;;;;;0.50;0.50;;;23.10;60.00;;;;;;5023396;28;20041;-22
2022/06/15 03:58:15;;;;;;;1.63;0.47;;;23.10;60.10;;;;;;4998733;28;20061;-22
2022/06/15 04:00:40;;;;;;;0.70;0.70;;;23.10;61.00;;;;;;4994389;28;20049;-21
2022/06/15 04:03:06;;;;;;;1.35;1.00;;;22.70;59.40;;;;;;5004225;28;20053;-21
2022/06/15 04:05:33;;;;;;;1.30;1.20;;;22.40;59.30;;;;;;5022925;28;20046;-21
2022/06/15 04:10:43;;;;;;;1.42;1.33;;;22.10;59.30;;;;;;5024171;28;20099;-22
2022/06/15 04:13:09;;;;;;;1.83;1.23;;;21.90;59.30;;;;;;5021676;28;20050;-22
2022/06/15 04:15:34;;;;;;;1.70;1.00;;;21.60;60.10;;;;;;5007340;28;20065;-22
2022/06/15 04:18:00;;;;;;;1.30;1.20;;;21.50;60.50;;;;;;5012626;28;20041;-22
2022/06/15 04:20:32;;;;;;;1.88;1.08;;;21.50;60.40;;;;;;5023056;28;20120;-21
2022/06/15 04:23:02;;;;;;;1.20;1.10;;;21.40;60.50;;;;;;5022149;28;20061;-22
2022/06/15 04:25:29;;;;;;;1.30;1.20;;;21.30;61.30;;;;;;5027909;28;20483;-22
2022/06/15 04:27:55;;;;;;;2.67;1.13;;;21.20;61.60;;;;;;5025655;28;20057;-22
2022/06/15 04:30:21;;;;;;;1.23;1.05;;;21.00;62.10;;;;;;5005736;28;20061;-22
2022/06/15 04:32:48;;;;;;;2.05;1.20;;;20.90;62.40;;;;;;5007330;28;20057;-21
2022/06/15 04:35:14;;;;;;;1.80;1.20;;;20.90;62.30;;;;;;5006569;28;20045;-21
2022/06/15 04:37:39;;;;;;;1.90;1.20;;;20.90;62.40;;;;;;5006212;28;20494;-21
2022/06/15 04:40:05;;;;;;;1.38;1.27;;;20.90;62.30;;;;;;5024008;28;20053;-22
2022/06/15 04:42:31;;;;;;;1.48;1.38;;;20.90;62.30;;;;;;5008952;28;20053;-22
2022/06/15 04:44:57;;;;;;;2.33;1.70;;;20.80;62.70;;;;;;5024546;28;20063;-21
2022/06/15 04:47:22;;;;;;;1.52;1.00;;;20.70;63.10;;;;;;5003381;28;20084;-21
2022/06/15 04:49:48;;;;;;;2.33;1.42;;;20.70;63.10;;;;;;5023609;28;20041;-21
2022/06/15 04:52:13;;;;;;;3.20;1.50;;;20.70;64.00;;;;;;5006834;28;20042;-22
2022/06/15 04:54:39;;;;;;;3.40;1.30;;;20.50;63.60;;;;;;5006657;28;20038;-21
2022/06/15 04:57:05;;;;;;;1.55;1.40;;;20.60;63.40;;;;;;5023190;28;20046;-21
2022/06/15 04:59:30;;;;;;;1.50;1.40;;;20.60;63.30;;;;;;5021631;28;20670;-21
2022/06/15 05:01:58;;;;;;;1.30;1.20;;;20.60;63.40;;;;;;5009772;28;20452;-21
2022/06/15 05:04:25;;;;;;;1.85;1.65;;;20.50;63.70;;;;;;5008918;28;20046;-22
2022/06/15 05:06:51;;;;;;;1.15;1.05;;;20.40;64.00;;;;;;5025728;28;20045;-21
2022/06/15 05:09:16;;;;;;;1.77;1.40;;;20.30;64.40;;;;;;4999366;28;20045;-21
2022/06/15 05:11:42;;;;;;;2.03;1.40;;;20.30;64.30;;;;;;5018946;28;20050;-21
2022/06/15 05:14:07;;;;;;;3.67;1.42;;;20.30;64.20;;;;;;5021650;28;20640;-22
2022/06/15 05:16:33;;;;;;;2.65;1.40;;;20.30;64.30;;;;;;5027348;28;20509;-21
2022/06/15 05:18:59;;;;;;;1.40;1.30;;;20.30;64.60;;;;;;5026965;28;20510;-21
2022/06/15 05:21:26;;;;;;;1.92;1.00;;;20.30;64.40;;;;;;5023016;28;20522;-21
2022/06/15 05:23:52;;;;;;;1.27;1.10;;;20.40;64.50;;;;;;5024403;28;20514;-22
2022/06/15 05:26:18;;;;;;;2.20;1.40;;;20.40;64.30;;;;;;5008873;28;20421;-21
2022/06/15 05:28:45;;;;;;;1.25;1.10;;;20.40;64.30;;;;;;5009804;28;20081;-21
2022/06/15 05:31:14;;;;;;;2.15;1.33;;;20.40;64.40;;;;;;5022184;28;20060;-21
2022/06/15 05:33:40;;;;;;;1.20;1.10;;;20.40;64.40;;;;;;5022800;28;20046;-21
2022/06/15 05:36:08;;;;;;;2.20;1.00;;;20.40;64.60;;;;;;5009300;28;20432;-21
2022/06/15 05:38:35;;;;;;;1.67;1.10;;;20.30;64.80;;;;;;4673104;28;10000019;-21
2022/06/15 05:41:01;;;;;;;1.85;1.35;;;20.30;64.90;;;;;;5024655;28;20123;-21
2022/06/15 05:43:26;;;;;;;1.88;1.13;;;20.40;64.80;;;;;;5007831;28;20061;-21
2022/06/15 05:45:52;;;;;;;2.38;1.10;;;20.40;64.60;;;;;;5021422;28;20140;-22
2022/06/15 05:48:18;;;;;;;1.55;1.20;;;20.40;64.90;;;;;;5023625;28;20042;-21
2022/06/15 05:50:43;;;;;;;1.75;1.38;;;20.30;65.30;;;;;;5004534;28;20111;-21
2022/06/15 05:53:09;;;;;;;1.83;1.38;;;20.40;65.40;;;;;;4655537;28;10000120;-21
2022/06/15 05:55:34;;;;;;;2.03;1.27;;;20.40;65.10;;;;;;5024479;28;20539;-22
2022/06/15 05:58:00;;;;;;;1.88;1.42;;;20.40;65.00;;;;;;5024476;28;20072;-21
2022/06/15 06:00:26;;;;;;;1.55;1.45;;;20.50;64.60;;;;;;5024997;28;20058;-22
2022/06/15 06:02:54;;;;;;;0.90;0.88;;;20.50;64.60;;;;;;5023553;28;20041;-21
2022/06/15 06:05:20;;;;;;;1.17;1.10;;;20.50;64.70;;;;;;5030200;28;20095;-21
2022/06/15 06:07:45;;;;;;;1.80;1.30;;;20.50;64.60;;;;;;5011230;28;20057;-21
2022/06/15 06:10:11;;;;;;;1.85;1.20;;;20.50;64.50;;;;;;5005057;28;20060;-22
2022/06/15 06:12:37;;;;;;;2.58;1.20;;;20.60;64.30;;;;;;4996915;28;20049;-21
2022/06/15 06:15:03;;;;;;;1.63;1.02;;;20.60;64.50;;;;;;5004292;28;20310;-21
2022/06/15 06:17:29;;;;;;;1.25;1.10;;;20.60;64.60;;;;;;5019896;28;20052;-22
2022/06/15 06:19:55;;;;;;;2.03;1.00;;;20.50;64.80;;;;;;5001516;28;20049;-21
2022/06/15 06:22:20;;;;;;;2.05;1.30;;;20.60;64.80;;;;;;5020764;28;20546;-21
2022/06/15 06:24:46;;;;;;;4.00;1.30;;;20.60;64.80;;;;;;5016002;28;20566;-21
2022/06/15 06:27:12;;;;;;;1.50;1.08;;;20.60;65.00;;;;;;5018103;28;20041;-21
2022/06/15 06:29:38;;;;;;;2.78;1.20;;;20.60;65.00;;;;;;5020377;28;20427;-21
2022/06/15 06:32:04;;;;;;;1.13;1.00;;;20.60;65.30;;;;;;5020501;28;20041;-21
2022/06/15 06:34:30;;;;;;;1.17;1.08;;;20.60;65.40;;;;;;5020660;28;20487;-21
2022/06/15 06:36:55;;;;;;;1.33;1.10;;;20.50;65.20;;;;;;5020662;28;20049;-22
2022/06/15 06:39:25;;;;;;;1.25;1.15;;;20.60;65.30;;;;;;5024976;28;20052;-22
2022/06/15 06:41:51;;;;;;;3.22;1.10;;;20.60;65.40;;;;;;5023388;28;20128;-21
2022/06/15 06:44:16;;;;;;;1.67;1.17;;;20.60;65.30;;;;;;5031103;28;20042;-21
2022/06/15 06:46:44;;;;;;;1.10;1.00;;;20.60;65.30;;;;;;5022264;28;20038;-21
2022/06/15 06:49:10;;;;;;;1.08;0.98;;;20.80;65.10;;;;;;5027670;28;20041;-22
2022/06/15 06:51:36;;;;;;;1.10;1.00;;;20.80;64.70;;;;;;5006432;28;20050;-22
2022/06/15 06:54:05;;;;;;;1.00;1.00;;;20.90;64.60;;;;;;5016919;28;20073;-22
2022/06/15 06:56:31;;;;;;;1.90;0.98;;;20.90;64.30;;;;;;5013163;28;20445;-21
2022/06/15 06:58:56;;;;;;;1.20;1.10;;;21.00;65.10;;;;;;5018163;28;20041;-22
2022/06/15 07:01:22;;;;;;;1.30;1.10;;;21.00;64.40;;;;;;5018958;28;20050;-21
2022/06/15 07:03:48;;;;;;;1.23;1.13;;;21.00;64.30;;;;;;5012252;28;20046;-21
2022/06/15 07:06:13;;;;;;;1.30;1.20;;;21.10;64.30;;;;;;4974942;28;20053;-21
2022/06/15 07:08:39;;;;;;;1.00;1.00;;;21.10;64.20;;;;;;5013704;28;20418;-22
2022/06/15 07:11:15;;;;;;;1.10;0.93;;;21.10;64.10;;;;;;4992728;28;20041;-21
2022/06/15 07:13:41;;;;;;;1.80;1.02;;;21.20;64.20;;;;;;5013886;28;20057;-21
2022/06/15 07:16:08;;;;;;;0.88;0.88;;;21.20;64.10;;;;;;5011018;28;20034;-21
2022/06/15 07:18:33;;;;;;;1.00;0.80;;;21.20;64.00;;;;;;5011403;28;20117;-21
2022/06/15 07:21:07;;;;;;;1.00;1.00;;;21.20;64.10;;;;;;5029992;28;20506;-21
2022/06/15 07:23:33;;;;;;;0.88;0.88;;;21.20;64.10;;;;;;5016609;28;20061;-21
2022/06/15 07:26:05;;;;;;;1.10;1.00;;;21.20;64.10;;;;;;5009275;28;20041;-22
2022/06/15 07:28:31;;;;;;;1.05;1.00;;;21.30;64.10;;;;;;5025715;28;20120;-22
2022/06/15 07:30:56;;;;;;;1.10;1.00;;;21.30;63.80;;;;;;5012377;28;20037;-22
2022/06/15 07:33:22;;;;;;;1.08;0.90;;;21.30;63.80;;;;;;5029380;28;20064;-22
2022/06/15 07:35:48;;;;;;;0.77;0.77;;;21.40;63.80;;;;;;5019413;28;20045;-21
2022/06/15 07:38:13;;;;;;;1.13;1.08;;;21.30;63.50;;;;;;5007291;28;20053;-23
2022/06/15 07:40:39;;;;;;;1.15;1.13;;;21.40;63.40;;;;;;4993336;28;20580;-22
2022/06/15 07:43:05;;;;;;;1.25;1.10;;;21.40;63.50;;;;;;5029921;28;20065;-21
2022/06/15 07:45:30;;;;;;;1.45;1.10;;;21.40;63.50;;;;;;5004009;28;20065;-22
2022/06/15 07:50:40;;;;;;;;;;;21.50;63.30;;;;;;5027695;28;20522;-21
2022/06/15 07:53:07;;;;;;;0.80;0.80;;;21.50;63.20;;;;;;5018014;28;20404;-21
2022/06/15 07:55:35;;;;;;;1.15;1.05;;;21.50;63.20;;;;;;5028316;28;20053;-21
2022/06/15 07:58:00;;;;;;;0.95;0.93;;;21.60;63.20;;;;;;5031035;28;20121;-21
2022/06/15 08:00:26;;;;;;;0.95;0.85;;;21.60;63.10;;;;;;5031808;28;20080;-21
2022/06/15 08:02:52;;;;;;;0.70;0.70;;;21.60;63.10;;;;;;5029313;28;20076;-21
2022/06/15 08:05:18;;;;;;;1.00;1.00;;;21.60;63.10;;;;;;5033123;28;20058;-22
2022/06/15 08:07:44;;;;;;;0.73;0.70;;;21.70;62.90;;;;;;5009794;28;20076;-21
2022/06/15 08:10:11;;;;;;;1.48;0.77;;;21.70;62.50;;;;;;5032118;28;20045;-21
2022/06/15 08:12:36;;;;;;;1.10;1.00;;;21.70;62.80;;;;;;5024845;28;20037;-22
2022/06/15 08:15:03;;;;;;;0.80;0.80;;;21.80;63.50;;;;;;5016801;28;20049;-21
2022/06/15 08:18:08;;;;;;;1.00;0.88;;;21.70;63.40;;;;;;5027304;28;20045;-22
2022/06/15 08:20:41;;;;;;;0.75;0.75;;;21.80;65.10;;;;;;5024485;28;20113;-22
2022/06/15 08:23:10;;;;;;;1.10;0.70;;;21.70;64.00;;;;;;5032456;28;20040;-21
2022/06/15 08:25:41;;;;;;;0.85;0.85;;;21.80;64.60;;;;;;5027568;28;20049;-21
2022/06/15 08:28:07;;;;;;;0.82;0.80;;;21.80;64.40;;;;;;5031414;28;20430;-22
2022/06/15 08:30:34;;;;;;;1.00;0.90;;;21.90;64.10;;;;;;5033589;28;20139;-21
2022/06/15 08:33:00;;;;;;;0.98;0.90;;;21.90;64.10;;;;;;5010093;28;20068;-21
2022/06/15 08:35:25;;;;;;;0.70;0.70;;;21.90;64.00;;;;;;5016315;28;20575;-21
2022/06/15 08:37:51;;;;;;;0.75;0.70;;;21.90;63.90;;;;;;5028687;28;20038;-21
2022/06/15 08:40:17;;;;;;;1.58;0.70;;;21.90;64.00;;;;;;5017515;28;20053;-21
2022/06/15 08:43:02;;;;;;;1.10;0.70;;;21.90;63.60;;;;;;5010315;28;20049;-22
2022/06/15 08:45:39;;;;;;;1.10;1.00;;;21.90;63.20;;;;;;5030370;28;20132;-21
2022/06/15 08:48:07;;;;;;;4.70;1.00;;;21.90;63.40;;;;;;5004578;28;20128;-21
2022/06/15 08:50:43;;;;;;;1.02;1.00;;;22.00;63.10;;;;;;5024372;28;20533;-21
2022/06/15 08:53:24;;;;;;;1.20;1.10;;;22.00;63.20;;;;;;5002174;28;20049;-21
2022/06/15 08:56:03;;;;;;;1.02;1.00;;;22.00;63.50;;;;;;5004858;28;20060;-22
2022/06/15 08:58:44;;;;;;;0.90;0.90;;;22.00;63.10;;;;;;5028262;28;20041;-21
2022/06/15 09:01:47;;;;;;;1.13;0.95;;;22.00;63.10;;;;;;5021279;28;20042;-21
2022/06/15 09:04:40;;;;;;;0.70;0.70;;;22.10;63.00;;;;;;5044929;28;20109;-21
2022/06/15 09:07:26;;;;;;;0.93;0.93;;;22.10;63.20;;;;;;5027713;28;20044;-22
2022/06/15 09:10:11;;;;;;;0.93;0.90;;;22.10;63.10;;;;;;5020662;28;20061;-22
2022/06/15 09:13:00;;;;;;;1.05;0.70;;;22.10;63.00;;;;;;5023319;28;20033;-22
2022/06/15 09:15:35;;;;;;;0.75;0.75;;;22.10;63.00;;;;;;5026824;28;20045;-22
2022/06/15 09:18:07;;;;;;;0.77;0.77;;;22.20;63.00;;;;;;5023262;28;20038;-21
2022/06/15 09:20:42;;;;;;;0.55;0.55;;;22.20;62.90;;;;;;5026485;28;20036;-22
2022/06/15 09:23:15;;;;;;;0.90;0.90;;;22.20;62.90;;;;;;5013567;28;20077;-22
2022/06/15 09:25:56;;;;;;;1.10;1.00;;;22.20;62.90;;;;;;5027007;28;20540;-22
2022/06/15 09:28:26;;;;;;;0.80;0.80;;;22.30;63.00;;;;;;5030207;28;20037;-22
2022/06/15 09:30:53;;;;;;;0.90;0.90;;;22.30;62.90;;;;;;5028532;28;20135;-22
2022/06/15 09:33:32;;;;;;;0.90;0.90;;;22.30;62.80;;;;;;5023279;28;20048;-22
2022/06/15 09:36:04;;;;;;;0.63;0.63;;;22.30;62.80;;;;;;5023330;28;20180;-22
2022/06/15 09:38:30;;;;;;;0.70;0.70;;;22.30;62.80;;;;;;5020360;28;20401;-22
2022/06/15 09:41:04;;;;;;;0.75;0.68;;;22.40;62.70;;;;;;5024515;28;20116;-22
2022/06/15 09:43:30;;;;;;;;;;;22.40;62.70;;;;;;5026060;28;20394;-23
2022/06/15 09:46:04;;;;;;;0.68;0.65;;;22.40;62.60;;;;;;5028842;28;19940;-21
2022/06/15 09:48:36;;;;;;;0.52;0.52;;;22.40;62.60;;;;;;5025058;28;20128;-22
2022/06/15 09:51:13;;;;;;;0.70;0.70;;;22.40;62.60;;;;;;5030259;28;20044;-23
2022/06/15 09:53:43;;;;;;;2.25;0.85;;;22.40;62.30;;;;;;5026330;28;20069;-22
2022/06/15 09:56:10;;;;;;;1.38;0.90;;;22.50;62.40;;;;;;5023222;28;20047;-22
2022/06/15 09:59:00;;;;;;;0.82;0.82;;;22.50;62.50;;;;;;5024087;28;20048;-22
2022/06/15 10:01:40;;;;;;;0.68;0.68;;;22.50;62.00;;;;;;5026113;28;21036;-21
2022/06/15 10:04:07;;;;;;;0.98;0.98;;;22.50;62.00;;;;;;5025985;28;20033;-22
2022/06/15 10:06:39;;;;;;;0.50;0.50;;;22.50;61.90;;;;;;5020059;28;20050;-22
2022/06/15 10:09:06;;;;;;;0.70;0.70;;;22.60;61.70;;;;;;5022069;28;20041;-22
2022/06/15 10:11:56;;;;;;;7.05;0.90;;;22.60;61.80;;;;;;5028315;28;20057;-21
2022/06/15 10:14:26;;;;;;;0.98;0.88;;;22.60;61.70;;;;;;5030127;28;20092;-22
2022/06/15 10:17:06;;;;;;;0.70;0.70;;;22.60;61.70;;;;;;5029669;28;20045;-21
2022/06/15 10:19:33;;;;;;;0.80;0.80;;;22.50;61.90;;;;;;5024616;28;20483;-22
2022/06/15 10:22:06;;;;;;;0.70;0.70;;;22.60;61.80;;;;;;5024599;28;20697;-21
2022/06/15 10:24:34;;;;;;;0.80;0.80;;;22.60;61.70;;;;;;5020801;28;20054;-21
2022/06/15 10:27:19;;;;;;;0.80;0.80;;;22.60;61.30;;;;;;5020436;28;20040;-21
2022/06/15 10:29:44;;;;;;;0.80;0.80;;;22.60;61.20;;;;;;5020571;28;20636;-22
2022/06/15 10:32:10;;;;;;;1.25;0.93;;;22.60;61.30;;;;;;5013235;28;20038;-20
2022/06/15 10:35:02;;;;;;;0.80;0.80;;;22.60;61.30;;;;;;5012023;28;20124;-21
2022/06/15 10:37:31;;;;;;;0.50;0.50;;;22.70;61.00;;;;;;5023790;28;20053;-21
2022/06/15 10:40:04;;;;;;;0.60;0.60;;;22.70;62.60;;;;;;5020477;28;20049;-21
2022/06/15 10:42:34;;;;;;;1.02;1.00;;;22.60;61.70;;;;;;5023041;28;20048;-21
2022/06/15 10:45:22;;;;;;;1.95;0.70;;;22.60;62.50;;;;;;5018712;28;20029;-21
2022/06/15 10:48:01;;;;;;;3.75;0.55;;;22.60;61.80;;;;;;5021198;28;20050;-21
2022/06/15 10:50:32;;;;;;;0.82;0.82;;;22.60;61.70;;;;;;5028860;28;20526;-21
2022/06/15 10:53:00;;;;;;;0.80;0.80;;;22.70;62.00;;;;;;5027980;28;20136;-21
2022/06/15 11:04:26;;;;;;;1.08;0.95;;;22.80;61.80;;;;;;5028007;28;20564;-21
2022/06/15 11:06:58;;;;;;;0.63;0.63;;;22.80;61.90;;;;;;5022425;28;20045;-21
2022/06/15 11:09:59;;;;;;;0.60;0.60;;;22.80;61.80;;;;;;5011904;28;20145;-21
2022/06/15 11:12:45;;;;;;;0.60;0.60;;;22.90;61.80;;;;;;5017830;28;20051;-21
2022/06/15 11:15:14;;;;;;;1.15;1.05;;;22.90;61.90;;;;;;5022136;28;20045;-21
2022/06/15 11:18:01;;;;;;;1.20;1.10;;;22.80;62.10;;;;;;5025949;28;20428;-20
2022/06/15 11:20:29;;;;;;;0.80;0.80;;;22.80;62.10;;;;;;5018597;28;20065;-21
2022/06/15 11:23:04;;;;;;;0.90;0.90;;;22.80;62.30;;;;;;5017505;28;20136;-22
2022/06/15 11:25:44;;;;;;;0.70;0.70;;;22.90;62.20;;;;;;5032287;28;20041;-21
2022/06/15 11:28:16;;;;;;;0.82;0.82;;;22.90;62.20;;;;;;5023106;28;20053;-21
2022/06/15 11:31:09;;;;;;;2.15;0.80;;;22.90;62.30;;;;;;5008004;28;20072;-21
2022/06/15 11:33:44;;;;;;;0.82;0.82;;;22.90;61.90;;;;;;5020923;28;20700;-21
2022/06/15 11:36:18;;;;;;;1.45;0.70;;;23.00;62.00;;;;;;5025263;28;20047;-21
2022/06/15 11:38:51;;;;;;;1.15;0.90;;;23.00;62.20;;;;;;5021634;28;20037;-21
2022/06/15 11:41:28;;;;;;;1.15;0.88;;;23.00;62.00;;;;;;5007447;28;20073;-22
2022/06/15 11:43:55;;;;;;;0.60;0.60;;;23.00;62.00;;;;;;5025441;28;20033;-21
2022/06/15 11:46:57;;;;;;;0.68;0.68;;;23.00;61.80;;;;;;5022121;28;20545;-22
2022/06/15 11:49:45;;;;;;;0.75;0.75;;;23.00;61.80;;;;;;5024077;28;20129;-21
2022/06/15 11:52:48;;;;;;;0.70;0.68;;;23.00;61.80;;;;;;5020439;28;20092;-21
2022/06/15 11:55:24;;;;;;;1.30;0.73;;;23.00;62.00;;;;;;5025748;28;20065;-22
2022/06/15 11:58:22;;;;;;;0.50;0.50;;;23.00;62.00;;;;;;5022605;28;20038;-22
2022/06/15 12:01:28;;;;;;;2.53;0.60;;;23.10;62.00;;;;;;4437751;28;10001321;-21
2022/06/15 12:04:12;;;;;;;0.80;0.80;;;23.10;62.00;;;;;;5026578;28;20598;-21
2022/06/15 12:06:58;;;;;;;0.70;0.70;;;23.10;62.00;;;;;;5026726;28;20060;-22
2022/06/15 12:09:33;;;;;;;1.00;1.00;;;23.10;62.00;;;;;;5023419;28;20064;-21
2022/06/15 12:14:58;;;;;;;0.77;0.50;;;23.10;62.10;;;;;;5019701;28;20048;-22
2022/06/15 12:17:32;;;;;;;0.65;0.65;;;23.20;61.90;;;;;;5032048;28;20045;-21
2022/06/15 12:20:36;;;;;;;0.80;0.80;;;23.20;61.90;;;;;;5025830;28;20452;-22
2022/06/15 12:23:01;;;;;;;0.70;0.70;;;23.20;61.80;;;;;;5032578;28;20076;-22
2022/06/15 12:25:43;;;;;;;1.05;0.70;;;23.20;61.90;;;;;;5029731;28;20053;-21
2022/06/15 12:28:16;;;;;;;0.60;0.60;;;23.20;61.90;;;;;;5019158;28;20052;-22
2022/06/15 12:31:04;;;;;;;0.68;0.68;;;23.20;61.70;;;;;;5028458;28;20045;-21
2022/06/15 12:34:01;;;;;;;0.50;0.50;;;23.20;61.70;;;;;;5032889;28;20056;-21
2022/06/15 12:36:37;;;;;;;2.50;1.02;;;23.20;61.70;;;;;;5025930;28;20125;-21
2022/06/15 12:39:04;;;;;;;0.65;0.65;;;23.30;61.80;;;;;;5025281;28;20046;-21
2022/06/15 12:44:37;;;;;;;0.80;0.80;;;23.30;62.10;;;;;;5027439;28;20064;-21
2022/06/15 12:47:04;;;;;;;0.55;0.50;;;23.30;61.80;;;;;;5024336;28;20534;-22
2022/06/15 12:49:49;;;;;;;0.68;0.68;;;23.30;61.90;;;;;;5030317;28;20168;-22
2022/06/15 12:52:27;;;;;;;0.80;0.80;;;23.30;61.70;;;;;;5026443;28;20033;-22
2022/06/15 12:55:15;;;;;;;1.63;0.60;;;23.40;61.90;;;;;;5018564;28;20040;-22
2022/06/15 12:58:18;;;;;;;0.50;0.50;;;23.30;61.50;;;;;;5026431;28;20175;-21
2022/06/15 13:00:53;;;;;;;0.50;0.50;;;23.40;61.80;;;;;;5024721;28;20405;-22
2022/06/15 13:03:40;;;;;;;1.23;0.50;;;23.30;61.70;;;;;;5014415;28;20042;-22
2022/06/15 13:06:21;;;;;;;1.05;0.43;;;23.40;61.70;;;;;;5025954;28;20045;-22
2022/06/15 13:08:58;;;;;;;0.70;0.60;;;23.30;61.60;;;;;;5032324;28;20048;-22
2022/06/15 13:11:24;;;;;;;0.85;0.85;;;23.30;61.60;;;;;;5025631;28;20572;-22
2022/06/15 13:13:51;;;;;;;0.73;0.73;;;23.30;61.60;;;;;;5028388;28;20425;-21
2022/06/15 13:16:37;;;;;;;0.77;0.77;;;23.30;61.60;;;;;;5020061;28;20073;-22
2022/06/15 13:19:04;;;;;;;0.60;0.60;;;23.30;61.80;;;;;;5005349;28;20513;-22
2022/06/15 13:22:05;;;;;;;0.68;0.60;;;23.40;61.80;;;;;;5023545;28;20071;-21
2022/06/15 13:24:30;;;;;;;0.70;0.70;;;23.40;61.70;;;;;;5023508;28;20045;-22
2022/06/15 13:27:00;;;;;;;0.70;0.70;;;23.50;61.70;;;;;;5023823;28;20103;-22
2022/06/15 13:29:29;;;;;;;1.05;1.00;;;23.50;61.80;;;;;;5024126;28;20038;-22
2022/06/15 13:31:58;;;;;;;0.80;0.80;;;23.40;61.80;;;;;;5023764;28;20037;-21